MiSS Aimee — WAN9966 — position and weather

sailwx.info

Track history (hours):
 
Tides and Currents Weather Stations Pressure Air Temp Water Temp Dewpoint Dewpoint Depression Visibility Wind Speed Wind Dir Waves Ship Positions

MiSS Aimee

Owner: PATTERSON MARINE INC, MORGAN CITY, LA. More information available from US FCC via Universal Licensing System and Coast Guard Vessel Documentation Center.

Last reported at 2017-Dec-10 23:24 UTC. Time now 2017-Dec-12 06:24 UTC.
Position N 29°46' W 095°06'.

Length 16 m.

MMSI: 367060130.

Date/timePositionNaut miles runAvg speedWind from/ knotsBaromVisibWave heightAir tempDewpointWater temp
2017-Dec-10 23:24N 29°46' W 095°06'2 5.3
2017-Dec-10 22:59N 29°45' W 095°04'3 6.8
2017-Dec-10 22:30N 29°43' W 095°01'3 6.9
2017-Dec-10 22:00N 29°40' W 094°58'4 8.0
2017-Dec-10 21:30N 29°36' W 094°57'4 7.9
2017-Dec-10 21:00N 29°33' W 094°54'137 6.2
2017-Dec-09 22:52N 28°06' W 096°56'4 6.0
2017-Dec-09 22:13N 28°03' W 096°59'1 6.2
2017-Dec-09 21:59N 28°02' W 096°60'3 6.3
2017-Dec-09 21:30N 27°60' W 097°02'3 6.0
2017-Dec-09 21:00N 27°57' W 097°03'3 6.1
2017-Dec-09 20:30N 27°54' W 097°03'3 0.8
2017-Dec-09 16:30N 27°51' W 097°04'0 0.0
2017-Dec-09 16:00N 27°51' W 097°04'0 0.2
2017-Dec-09 15:29N 27°51' W 097°04'4 8.5
2017-Dec-09 14:59N 27°50' W 097°08'3 5.8
2017-Dec-09 14:30N 27°49' W 097°11'0 0.2
2017-Dec-09 14:00N 27°49' W 097°11'2 3.9
2017-Dec-09 13:29N 27°50' W 097°14'2 3.6
2017-Dec-09 12:59N 27°51' W 097°14'0 0.9
2017-Dec-09 12:30N 27°51' W 097°14'1 2.2
2017-Dec-09 12:00N 27°50' W 097°14'2 4.2
2017-Dec-09 11:29N 27°49' W 097°11'2 4.7
2017-Dec-09 11:00N 27°50' W 097°09'2 4.0
2017-Dec-09 10:30N 27°50' W 097°07'2 3.4
2017-Dec-09 10:00N 27°50' W 097°05'2 4.2
2017-Dec-09 09:29N 27°52' W 097°03'3 5.4
2017-Dec-09 08:59N 27°55' W 097°03'2 4.6
2017-Dec-09 08:29N 27°57' W 097°04'2 4.7
2017-Dec-09 07:59N 27°59' W 097°03'2 4.9
2017-Dec-09 07:30N 28°01' W 097°01'2 4.7
2017-Dec-09 07:00N 28°03' W 096°59'2 4.4
2017-Dec-09 06:30N 28°05' W 096°58'2 4.3
2017-Dec-09 06:00N 28°06' W 096°56'2 3.6
2017-Dec-09 05:29N 28°08' W 096°55'2 3.9
2017-Dec-09 04:59N 28°09' W 096°54'2 4.2
2017-Dec-09 04:29N 28°11' W 096°52'2 3.8
2017-Dec-09 03:59N 28°12' W 096°50'  
2017-Dec-03 15:13N 29°38' W 094°18'0 0.2
2017-Dec-03 13:35N 29°38' W 094°18'0 0.0
2017-Dec-03 13:16N 29°38' W 094°18'0 0.0
2017-Dec-03 12:34N 29°38' W 094°18'0 0.0
2017-Dec-03 12:29N 29°38' W 094°18'0 0.0
2017-Dec-03 10:51N 29°38' W 094°18'0 0.0
2017-Dec-03 10:27N 29°38' W 094°18'0 0.0
2017-Dec-03 10:00N 29°38' W 094°18'0 0.0
2017-Dec-03 09:30N 29°38' W 094°18'0 0.0
2017-Dec-03 09:00N 29°38' W 094°18'0 0.0
2017-Dec-03 08:30N 29°38' W 094°18'0 0.0
2017-Dec-03 08:00N 29°38' W 094°18'0 0.0
2017-Dec-03 07:09N 29°38' W 094°18'0 0.0
2017-Dec-03 06:51N 29°38' W 094°18'0 0.0
2017-Dec-03 06:30N 29°38' W 094°18'0 0.0
2017-Dec-03 06:00N 29°38' W 094°18'0 0.0
2017-Dec-03 05:30N 29°38' W 094°18'0 0.0
2017-Dec-03 04:59N 29°38' W 094°18'0 0.0
2017-Dec-03 04:30N 29°38' W 094°18'0 0.0
2017-Dec-03 04:00N 29°38' W 094°18'0 0.0
2017-Dec-03 03:30N 29°38' W 094°18'0 0.0
2017-Dec-03 02:44N 29°38' W 094°18'45 3.9
2017-Dec-02 15:17N 30°04' W 093°35'1 3.6
2017-Dec-02 15:00N 30°04' W 093°34'2 3.8
2017-Dec-02 14:31N 30°04' W 093°31'2 4.2
2017-Dec-02 14:00N 30°04' W 093°29'1 2.8
2017-Dec-02 13:30N 30°04' W 093°27'2 3.8
2017-Dec-02 13:00N 30°04' W 093°25'1 2.6
2017-Dec-02 12:30N 30°04' W 093°24'0 0.0
2017-Dec-02 12:00N 30°04' W 093°24'0 0.0
2017-Dec-02 11:30N 30°04' W 093°24'0 0.0
2017-Dec-02 11:00N 30°04' W 093°24'0 0.1
2017-Dec-02 10:30N 30°04' W 093°24'0 0.1
2017-Dec-02 10:00N 30°04' W 093°24'0 0.0
2017-Dec-02 09:30N 30°04' W 093°24'1 1.5
2017-Dec-02 09:00N 30°04' W 093°23'1 2.9
2017-Dec-02 08:30N 30°04' W 093°21'2 3.0
2017-Dec-02 08:00N 30°05' W 093°20'2 3.1
2017-Dec-02 07:30N 30°06' W 093°19'0 0.0
2017-Dec-02 07:00N 30°06' W 093°19'1 1.4
2017-Dec-02 06:30N 30°06' W 093°18'1 1.5
2017-Dec-02 06:00N 30°05' W 093°17'1 1.9
2017-Dec-02 05:30N 30°05' W 093°17'1 2.2
2017-Dec-02 05:01N 30°04' W 093°16'0 0.0
2017-Dec-02 04:30N 30°04' W 093°16'0 0.1
2017-Dec-02 04:00N 30°04' W 093°16'1 1.6
2017-Dec-02 03:30N 30°03' W 093°16'2 3.8
2017-Dec-02 03:00N 30°02' W 093°14'2 3.4
2017-Dec-02 02:31N 29°60' W 093°13'2 3.2
2017-Dec-02 02:01N 29°59' W 093°12'1 2.6
2017-Dec-02 01:30N 29°58' W 093°11'2 4.1
2017-Dec-02 01:00N 29°56' W 093°10'2 4.2
2017-Dec-02 00:30N 29°56' W 093°07'40 4.0
2017-Dec-01 14:31N 29°51' W 092°22'0 3.9
2017-Dec-01 14:30N 29°51' W 092°21'2 4.2
2017-Dec-01 14:00N 29°50' W 092°19'2 4.0
2017-Dec-01 13:28N 29°49' W 092°17'2 4.5
2017-Dec-01 13:00N 29°48' W 092°15'2 3.8
2017-Dec-01 12:30N 29°47' W 092°13'1 1.2
2017-Dec-01 12:00N 29°47' W 092°12'0 0.7
2017-Dec-01 11:30N 29°47' W 092°12'1 1.4
2017-Dec-01 11:00N 29°47' W 092°11'0 0.0
2017-Dec-01 10:30N 29°47' W 092°11'0 0.9
2017-Dec-01 10:00N 29°47' W 092°11'2 3.6
2017-Dec-01 09:30N 29°47' W 092°09'2 4.4
2017-Dec-01 09:00N 29°48' W 092°06'2 4.2
2017-Dec-01 08:29N 29°48' W 092°04'2 4.2
2017-Dec-01 08:00N 29°49' W 092°02'2 4.5
2017-Dec-01 07:30N 29°50' W 091°59'2 4.4
2017-Dec-01 06:59N 29°51' W 091°57'  
Track history (hours):
 
Tides and Currents Weather Stations Pressure Air Temp Water Temp Dewpoint Dewpoint Depression Visibility Wind Speed Wind Dir Waves Ship Positions

MiSS Aimee

Owner: PATTERSON MARINE INC, MORGAN CITY, LA. More information available from US FCC via Universal Licensing System and Coast Guard Vessel Documentation Center.

Last reported at 2017-Dec-10 23:24 UTC. Time now 2017-Dec-12 06:24 UTC.
Position N 29°46' W 095°06'.

Length 16 m.

MMSI: 367060130.

Date/timePositionNaut miles runAvg speedWind from/ knotsBaromVisibWave heightAir tempDewpointWater temp
2017-Dec-10 23:24N 29°46' W 095°06'2 5.3
2017-Dec-10 22:59N 29°45' W 095°04'3 6.8
2017-Dec-10 22:30N 29°43' W 095°01'3 6.9
2017-Dec-10 22:00N 29°40' W 094°58'4 8.0
2017-Dec-10 21:30N 29°36' W 094°57'4 7.9
2017-Dec-10 21:00N 29°33' W 094°54'137 6.2
2017-Dec-09 22:52N 28°06' W 096°56'4 6.0
2017-Dec-09 22:13N 28°03' W 096°59'1 6.2
2017-Dec-09 21:59N 28°02' W 096°60'3 6.3
2017-Dec-09 21:30N 27°60' W 097°02'3 6.0
2017-Dec-09 21:00N 27°57' W 097°03'3 6.1
2017-Dec-09 20:30N 27°54' W 097°03'3 0.8
2017-Dec-09 16:30N 27°51' W 097°04'0 0.0
2017-Dec-09 16:00N 27°51' W 097°04'0 0.2
2017-Dec-09 15:29N 27°51' W 097°04'4 8.5
2017-Dec-09 14:59N 27°50' W 097°08'3 5.8
2017-Dec-09 14:30N 27°49' W 097°11'0 0.2
2017-Dec-09 14:00N 27°49' W 097°11'2 3.9
2017-Dec-09 13:29N 27°50' W 097°14'2 3.6
2017-Dec-09 12:59N 27°51' W 097°14'0 0.9
2017-Dec-09 12:30N 27°51' W 097°14'1 2.2
2017-Dec-09 12:00N 27°50' W 097°14'2 4.2
2017-Dec-09 11:29N 27°49' W 097°11'2 4.7
2017-Dec-09 11:00N 27°50' W 097°09'2 4.0
2017-Dec-09 10:30N 27°50' W 097°07'2 3.4
2017-Dec-09 10:00N 27°50' W 097°05'2 4.2
2017-Dec-09 09:29N 27°52' W 097°03'3 5.4
2017-Dec-09 08:59N 27°55' W 097°03'2 4.6
2017-Dec-09 08:29N 27°57' W 097°04'2 4.7
2017-Dec-09 07:59N 27°59' W 097°03'2 4.9
2017-Dec-09 07:30N 28°01' W 097°01'2 4.7
2017-Dec-09 07:00N 28°03' W 096°59'2 4.4
2017-Dec-09 06:30N 28°05' W 096°58'2 4.3
2017-Dec-09 06:00N 28°06' W 096°56'2 3.6
2017-Dec-09 05:29N 28°08' W 096°55'2 3.9
2017-Dec-09 04:59N 28°09' W 096°54'2 4.2
2017-Dec-09 04:29N 28°11' W 096°52'2 3.8
2017-Dec-09 03:59N 28°12' W 096°50'  
2017-Dec-03 15:13N 29°38' W 094°18'0 0.2
2017-Dec-03 13:35N 29°38' W 094°18'0 0.0
2017-Dec-03 13:16N 29°38' W 094°18'0 0.0
2017-Dec-03 12:34N 29°38' W 094°18'0 0.0
2017-Dec-03 12:29N 29°38' W 094°18'0 0.0
2017-Dec-03 10:51N 29°38' W 094°18'0 0.0
2017-Dec-03 10:27N 29°38' W 094°18'0 0.0
2017-Dec-03 10:00N 29°38' W 094°18'0 0.0
2017-Dec-03 09:30N 29°38' W 094°18'0 0.0
2017-Dec-03 09:00N 29°38' W 094°18'0 0.0
2017-Dec-03 08:30N 29°38' W 094°18'0 0.0
2017-Dec-03 08:00N 29°38' W 094°18'0 0.0
2017-Dec-03 07:09N 29°38' W 094°18'0 0.0
2017-Dec-03 06:51N 29°38' W 094°18'0 0.0
2017-Dec-03 06:30N 29°38' W 094°18'0 0.0
2017-Dec-03 06:00N 29°38' W 094°18'0 0.0
2017-Dec-03 05:30N 29°38' W 094°18'0 0.0
2017-Dec-03 04:59N 29°38' W 094°18'0 0.0
2017-Dec-03 04:30N 29°38' W 094°18'0 0.0
2017-Dec-03 04:00N 29°38' W 094°18'0 0.0
2017-Dec-03 03:30N 29°38' W 094°18'0 0.0
2017-Dec-03 02:44N 29°38' W 094°18'45 3.9
2017-Dec-02 15:17N 30°04' W 093°35'1 3.6
2017-Dec-02 15:00N 30°04' W 093°34'2 3.8
2017-Dec-02 14:31N 30°04' W 093°31'2 4.2
2017-Dec-02 14:00N 30°04' W 093°29'1 2.8
2017-Dec-02 13:30N 30°04' W 093°27'2 3.8
2017-Dec-02 13:00N 30°04' W 093°25'1 2.6
2017-Dec-02 12:30N 30°04' W 093°24'0 0.0
2017-Dec-02 12:00N 30°04' W 093°24'0 0.0
2017-Dec-02 11:30N 30°04' W 093°24'0 0.0
2017-Dec-02 11:00N 30°04' W 093°24'0 0.1
2017-Dec-02 10:30N 30°04' W 093°24'0 0.1
2017-Dec-02 10:00N 30°04' W 093°24'0 0.0
2017-Dec-02 09:30N 30°04' W 093°24'1 1.5
2017-Dec-02 09:00N 30°04' W 093°23'1 2.9
2017-Dec-02 08:30N 30°04' W 093°21'2 3.0
2017-Dec-02 08:00N 30°05' W 093°20'2 3.1
2017-Dec-02 07:30N 30°06' W 093°19'0 0.0
2017-Dec-02 07:00N 30°06' W 093°19'1 1.4
2017-Dec-02 06:30N 30°06' W 093°18'1 1.5
2017-Dec-02 06:00N 30°05' W 093°17'1 1.9
2017-Dec-02 05:30N 30°05' W 093°17'1 2.2
2017-Dec-02 05:01N 30°04' W 093°16'0 0.0
2017-Dec-02 04:30N 30°04' W 093°16'0 0.1
2017-Dec-02 04:00N 30°04' W 093°16'1 1.6
2017-Dec-02 03:30N 30°03' W 093°16'2 3.8
2017-Dec-02 03:00N 30°02' W 093°14'2 3.4
2017-Dec-02 02:31N 29°60' W 093°13'2 3.2
2017-Dec-02 02:01N 29°59' W 093°12'1 2.6
2017-Dec-02 01:30N 29°58' W 093°11'2 4.1
2017-Dec-02 01:00N 29°56' W 093°10'2 4.2
2017-Dec-02 00:30N 29°56' W 093°07'40 4.0
2017-Dec-01 14:31N 29°51' W 092°22'0 3.9
2017-Dec-01 14:30N 29°51' W 092°21'2 4.2
2017-Dec-01 14:00N 29°50' W 092°19'2 4.0
2017-Dec-01 13:28N 29°49' W 092°17'2 4.5
2017-Dec-01 13:00N 29°48' W 092°15'2 3.8
2017-Dec-01 12:30N 29°47' W 092°13'1 1.2
2017-Dec-01 12:00N 29°47' W 092°12'0 0.7
2017-Dec-01 11:30N 29°47' W 092°12'1 1.4
2017-Dec-01 11:00N 29°47' W 092°11'0 0.0
2017-Dec-01 10:30N 29°47' W 092°11'0 0.9
2017-Dec-01 10:00N 29°47' W 092°11'2 3.6
2017-Dec-01 09:30N 29°47' W 092°09'2 4.4
2017-Dec-01 09:00N 29°48' W 092°06'2 4.2
2017-Dec-01 08:29N 29°48' W 092°04'2 4.2
2017-Dec-01 08:00N 29°49' W 092°02'2 4.5
2017-Dec-01 07:30N 29°50' W 091°59'2 4.4
2017-Dec-01 06:59N 29°51' W 091°57'  

Dump ship's entire track history